HALIX LHSM-LDPL
Flight info
| Callsign | HALIX |
|---|---|
| Flight time | N/A |
| Altitude | 10000 |
| Route | NALOX DCT DIMLO DCT IRLIX DCT DARZA/N0142F090 L868 KULEN |
| Aircraft | DC3/M-SDF/S |
Departure
| Time | 2026-04-15 12:39 |
|---|---|
| Airport | Hévíz–Balaton Airport (LHSM) |
Arrival
| Time | N/A |
|---|---|
| Airport | Pula Airport (LDPL) |
| Time | Latitude | Longitude | Altitude | Speed | Heading |
|---|---|---|---|---|---|
| 2026-04-15 12:32 | 46.68422 | 17.16525 | 413 ft | 0 kts | 138° |
| 2026-04-15 12:33 | 46.68434 | 17.16509 | 410 ft | 3 kts | 138° |
| 2026-04-15 12:33 | 46.68447 | 17.16492 | 412 ft | 3 kts | 138° |
| 2026-04-15 12:33 | 46.68449 | 17.16489 | 413 ft | 0 kts | 138° |
| 2026-04-15 12:34 | 46.68449 | 17.16490 | 413 ft | 0 kts | 141° |
| 2026-04-15 12:34 | 46.68445 | 17.16457 | 413 ft | 12 kts | 267° |
| 2026-04-15 12:34 | 46.68392 | 17.16367 | 413 ft | 15 kts | 174° |
| 2026-04-15 12:35 | 46.68260 | 17.16402 | 413 ft | 23 kts | 172° |
| 2026-04-15 12:35 | 46.68091 | 17.16438 | 412 ft | 26 kts | 171° |
| 2026-04-15 12:35 | 46.67903 | 17.16478 | 411 ft | 28 kts | 191° |
| 2026-04-15 12:35 | 46.67824 | 17.16430 | 411 ft | 0 kts | 160° |
| 2026-04-15 12:36 | 46.67809 | 17.16438 | 411 ft | 7 kts | 160° |
| 2026-04-15 12:37 | 46.67772 | 17.16457 | 411 ft | 9 kts | 160° |
| 2026-04-15 12:37 | 46.67677 | 17.16504 | 411 ft | 19 kts | 168° |
| 2026-04-15 12:37 | 46.67571 | 17.16399 | 411 ft | 24 kts | 266° |
| 2026-04-15 12:37 | 46.67719 | 17.16261 | 410 ft | 41 kts | 346° |
| 2026-04-15 12:38 | 46.68119 | 17.16121 | 413 ft | 75 kts | 347° |
| 2026-04-15 12:38 | 46.68669 | 17.15897 | 530 ft | 91 kts | 344° |
| 2026-04-15 12:38 | 46.69341 | 17.15600 | 627 ft | 114 kts | 343° |
| 2026-04-15 12:38 | 46.70133 | 17.15250 | 848 ft | 120 kts | 346° |
| 2026-04-15 12:39 | 46.70950 | 17.14975 | 1178 ft | 121 kts | 348° |
| 2026-04-15 12:39 | 46.71773 | 17.14715 | 1591 ft | 121 kts | 349° |
| 2026-04-15 12:39 | 46.72598 | 17.14424 | 2022 ft | 123 kts | 347° |
| 2026-04-15 12:39 | 46.73418 | 17.14073 | 2426 ft | 123 kts | 345° |
| 2026-04-15 12:40 | 46.74250 | 17.13766 | 2860 ft | 124 kts | 349° |
| 2026-04-15 12:40 | 46.75093 | 17.13481 | 3288 ft | 125 kts | 346° |
| 2026-04-15 12:40 | 46.75924 | 17.13155 | 3611 ft | 126 kts | 345° |
| 2026-04-15 12:40 | 46.76770 | 17.12802 | 3936 ft | 127 kts | 345° |
| 2026-04-15 12:41 | 46.76826 | 17.12779 | 3959 ft | 127 kts | 345° |
| 2026-04-15 12:41 | 46.77324 | 17.12580 | 4158 ft | 127 kts | 346° |
| 2026-04-15 12:41 | 46.78180 | 17.12252 | 4479 ft | 127 kts | 346° |
| 2026-04-15 12:42 | 46.79040 | 17.11935 | 4801 ft | 128 kts | 346° |
| 2026-04-15 12:42 | 46.79905 | 17.11610 | 5109 ft | 128 kts | 346° |
| 2026-04-15 12:42 | 46.80767 | 17.11282 | 5409 ft | 128 kts | 346° |
| 2026-04-15 12:42 | 46.81631 | 17.10955 | 5696 ft | 128 kts | 346° |
| 2026-04-15 12:43 | 46.82405 | 17.10340 | 5909 ft | 135 kts | 303° |
| 2026-04-15 12:43 | 46.82378 | 17.09008 | 6147 ft | 137 kts | 246° |
| 2026-04-15 12:43 | 46.81998 | 17.07756 | 6479 ft | 133 kts | 246° |
| 2026-04-15 12:43 | 46.81649 | 17.06516 | 6755 ft | 131 kts | 250° |
| 2026-04-15 12:44 | 46.81400 | 17.05242 | 7015 ft | 130 kts | 257° |
| 2026-04-15 12:44 | 46.81203 | 17.03959 | 7273 ft | 129 kts | 257° |
| 2026-04-15 12:44 | 46.80988 | 17.02687 | 7495 ft | 131 kts | 255° |
| 2026-04-15 12:44 | 46.80738 | 17.01358 | 7599 ft | 141 kts | 255° |
| 2026-04-15 12:45 | 46.80461 | 16.99919 | 7655 ft | 154 kts | 253° |
| 2026-04-15 12:45 | 46.79727 | 16.98775 | 7672 ft | 166 kts | 198° |
| 2026-04-15 12:45 | 46.78639 | 16.98823 | 8123 ft | 149 kts | 174° |
| 2026-04-15 12:45 | 46.77651 | 16.98962 | 8532 ft | 138 kts | 179° |
| 2026-04-15 12:46 | 46.76723 | 16.98950 | 8837 ft | 133 kts | 184° |
| 2026-04-15 12:46 | 46.75807 | 16.98896 | 9115 ft | 131 kts | 184° |
| 2026-04-15 12:46 | 46.74899 | 16.98882 | 9347 ft | 130 kts | 182° |
| 2026-04-15 12:46 | 46.73996 | 16.98895 | 9595 ft | 130 kts | 182° |
| 2026-04-15 12:47 | 46.73097 | 16.98898 | 9827 ft | 129 kts | 183° |
| 2026-04-15 12:47 | 46.72202 | 16.98887 | 10028 ft | 129 kts | 184° |
| 2026-04-15 12:47 | 46.71276 | 16.98870 | 10119 ft | 138 kts | 183° |
| 2026-04-15 12:47 | 46.70282 | 16.98858 | 10161 ft | 148 kts | 183° |
| 2026-04-15 12:48 | 46.69219 | 16.98854 | 10179 ft | 157 kts | 182° |
| 2026-04-15 12:48 | 46.68095 | 16.98854 | 10190 ft | 167 kts | 182° |
| 2026-04-15 12:48 | 46.66932 | 16.98538 | 10178 ft | 175 kts | 213° |
| 2026-04-15 12:48 | 46.66342 | 16.97069 | 10181 ft | 176 kts | 266° |
| 2026-04-15 12:49 | 46.66849 | 16.95489 | 10179 ft | 182 kts | 319° |
| 2026-04-15 12:49 | 46.68071 | 16.95076 | 10201 ft | 188 kts | 2° |
| 2026-04-15 12:49 | 46.69390 | 16.95233 | 10228 ft | 192 kts | 2° |
| 2026-04-15 12:49 | 46.70702 | 16.95007 | 10222 ft | 195 kts | 343° |
| 2026-04-15 12:50 | 46.71994 | 16.94353 | 10213 ft | 198 kts | 336° |
| 2026-04-15 12:50 | 46.73258 | 16.93527 | 10207 ft | 200 kts | 329° |
| 2026-04-15 12:50 | 46.74449 | 16.92463 | 10198 ft | 200 kts | 325° |
| 2026-04-15 12:50 | 46.75611 | 16.91410 | 10180 ft | 195 kts | 328° |
| 2026-04-15 12:51 | 46.76796 | 16.90477 | 10184 ft | 192 kts | 330° |
| 2026-04-15 12:51 | 46.77964 | 16.89543 | 10183 ft | 191 kts | 328° |
| 2026-04-15 12:51 | 46.79101 | 16.88566 | 10186 ft | 189 kts | 327° |
| 2026-04-15 12:51 | 46.80233 | 16.87601 | 10184 ft | 188 kts | 328° |
| 2026-04-15 12:52 | 46.81375 | 16.86668 | 10180 ft | 187 kts | 329° |
| 2026-04-15 12:52 | 46.82505 | 16.85741 | 10186 ft | 186 kts | 328° |
| 2026-04-15 12:52 | 46.83619 | 16.84801 | 10184 ft | 185 kts | 328° |
| 2026-04-15 12:52 | 46.84729 | 16.83860 | 10187 ft | 184 kts | 328° |
| 2026-04-15 12:53 | 46.85846 | 16.82932 | 10189 ft | 185 kts | 327° |
| 2026-04-15 12:53 | 46.86646 | 16.81531 | 10171 ft | 183 kts | 285° |
| 2026-04-15 12:53 | 46.86406 | 16.79765 | 10183 ft | 183 kts | 237° |
| 2026-04-15 12:53 | 46.85588 | 16.78344 | 10206 ft | 188 kts | 230° |
| 2026-04-15 12:54 | 46.84719 | 16.76885 | 10200 ft | 193 kts | 230° |
| 2026-04-15 12:54 | 46.83839 | 16.75379 | 10197 ft | 196 kts | 231° |
| 2026-04-15 12:54 | 46.83048 | 16.73735 | 10188 ft | 198 kts | 238° |
| 2026-04-15 12:54 | 46.82333 | 16.72049 | 10189 ft | 193 kts | 239° |
| 2026-04-15 12:55 | 46.81587 | 16.70438 | 10186 ft | 190 kts | 236° |
| 2026-04-15 12:55 | 46.80822 | 16.68882 | 10188 ft | 187 kts | 236° |
| 2026-04-15 12:55 | 46.80089 | 16.67315 | 10189 ft | 186 kts | 237° |
| 2026-04-15 12:55 | 46.79372 | 16.65731 | 10193 ft | 188 kts | 237° |
| 2026-04-15 12:56 | 46.78636 | 16.64157 | 10188 ft | 187 kts | 236° |
| 2026-04-15 12:56 | 46.77897 | 16.62605 | 10188 ft | 185 kts | 236° |
| 2026-04-15 12:56 | 46.77171 | 16.61061 | 10191 ft | 184 kts | 236° |
| 2026-04-15 12:56 | 46.76452 | 16.59513 | 10189 ft | 184 kts | 237° |
| 2026-04-15 12:57 | 46.75724 | 16.57958 | 10197 ft | 188 kts | 236° |
| 2026-04-15 12:57 | 46.74974 | 16.56362 | 10202 ft | 193 kts | 236° |
| 2026-04-15 12:57 | 46.74222 | 16.54759 | 10189 ft | 195 kts | 236° |
| 2026-04-15 12:57 | 46.73467 | 16.53140 | 10183 ft | 191 kts | 236° |
| 2026-04-15 12:58 | 46.72718 | 16.51546 | 10193 ft | 191 kts | 236° |
| 2026-04-15 12:58 | 46.71957 | 16.49935 | 10191 ft | 195 kts | 236° |
| 2026-04-15 12:58 | 46.71180 | 16.48290 | 10194 ft | 199 kts | 236° |
| 2026-04-15 12:58 | 46.70397 | 16.46618 | 10188 ft | 201 kts | 236° |
| 2026-04-15 12:59 | 46.68826 | 16.43250 | 10178 ft | 198 kts | 237° |
| 2026-04-15 12:59 | 46.68082 | 16.41583 | 10176 ft | 194 kts | 238° |
| 2026-04-15 12:59 | 46.67454 | 16.39862 | 10182 ft | 191 kts | 245° |
| 2026-04-15 13:00 | 46.66902 | 16.38119 | 10179 ft | 188 kts | 245° |
| 2026-04-15 13:00 | 46.66305 | 16.36430 | 10183 ft | 186 kts | 242° |
| 2026-04-15 13:00 | 46.65682 | 16.34773 | 10186 ft | 187 kts | 242° |
| 2026-04-15 13:00 | 46.65089 | 16.33092 | 10184 ft | 187 kts | 243° |
| 2026-04-15 13:01 | 46.64508 | 16.31407 | 10189 ft | 186 kts | 243° |
| 2026-04-15 13:01 | 46.63913 | 16.29727 | 10192 ft | 188 kts | 242° |
| 2026-04-15 13:01 | 46.63302 | 16.28039 | 10198 ft | 193 kts | 242° |
| 2026-04-15 13:01 | 46.62678 | 16.26287 | 10195 ft | 197 kts | 243° |
| 2026-04-15 13:02 | 46.62053 | 16.24501 | 10186 ft | 200 kts | 243° |
| 2026-04-15 13:02 | 46.61416 | 16.22704 | 10182 ft | 198 kts | 242° |
| 2026-04-15 13:02 | 46.60783 | 16.20947 | 10180 ft | 194 kts | 242° |
| 2026-04-15 13:02 | 46.60167 | 16.19222 | 10182 ft | 191 kts | 242° |
| 2026-04-15 13:03 | 46.59561 | 16.17520 | 10181 ft | 188 kts | 243° |
| 2026-04-15 13:03 | 46.58964 | 16.15839 | 10191 ft | 186 kts | 242° |
| 2026-04-15 13:03 | 46.58365 | 16.14163 | 10192 ft | 188 kts | 242° |
| 2026-04-15 13:03 | 46.57756 | 16.12472 | 10200 ft | 190 kts | 242° |
| 2026-04-15 13:04 | 46.57144 | 16.10759 | 10191 ft | 192 kts | 242° |
| 2026-04-15 13:04 | 46.56524 | 16.09019 | 10201 ft | 195 kts | 242° |
| 2026-04-15 13:04 | 46.55892 | 16.07252 | 10201 ft | 199 kts | 242° |
| 2026-04-15 13:04 | 46.55256 | 16.05480 | 10191 ft | 200 kts | 242° |
| 2026-04-15 13:05 | 46.54623 | 16.03705 | 10189 ft | 196 kts | 242° |
| 2026-04-15 13:05 | 46.53999 | 16.01962 | 10189 ft | 193 kts | 242° |
| 2026-04-15 13:05 | 46.53383 | 16.00251 | 10188 ft | 190 kts | 242° |
| 2026-04-15 13:05 | 46.52773 | 15.98559 | 10206 ft | 190 kts | 242° |
| 2026-04-15 13:06 | 46.52154 | 15.96844 | 10207 ft | 193 kts | 242° |
| 2026-04-15 13:06 | 46.51525 | 15.95095 | 10199 ft | 196 kts | 242° |
| 2026-04-15 13:06 | 46.50900 | 15.93351 | 10198 ft | 194 kts | 242° |
| 2026-04-15 13:06 | 46.50491 | 15.92204 | 10201 ft | 192 kts | 242° |
| 2026-04-15 13:07 | 46.49669 | 15.89920 | 10202 ft | 189 kts | 242° |
| 2026-04-15 13:07 | 46.49057 | 15.88233 | 10206 ft | 189 kts | 242° |
| 2026-04-15 13:07 | 46.48650 | 15.87117 | 10221 ft | 190 kts | 242° |
| 2026-04-15 13:07 | 46.48033 | 15.85403 | 10206 ft | 192 kts | 242° |
| 2026-04-15 13:08 | 46.47419 | 15.83688 | 10207 ft | 190 kts | 242° |
| 2026-04-15 13:08 | 46.46810 | 15.81998 | 10206 ft | 188 kts | 242° |
| 2026-04-15 13:08 | 46.46195 | 15.80310 | 10209 ft | 191 kts | 241° |
| 2026-04-15 13:08 | 46.45575 | 15.78609 | 10221 ft | 191 kts | 242° |
| 2026-04-15 13:09 | 46.44953 | 15.76882 | 10212 ft | 194 kts | 241° |
| 2026-04-15 13:09 | 46.44325 | 15.75143 | 10210 ft | 195 kts | 242° |
| 2026-04-15 13:09 | 46.43698 | 15.73410 | 10208 ft | 193 kts | 242° |
| 2026-04-15 13:09 | 46.43073 | 15.71690 | 10212 ft | 193 kts | 241° |
| 2026-04-15 13:10 | 46.42283 | 15.70152 | 10201 ft | 190 kts | 223° |
| 2026-04-15 13:10 | 46.41268 | 15.68979 | 10216 ft | 190 kts | 215° |
| 2026-04-15 13:10 | 46.40159 | 15.67894 | 10219 ft | 194 kts | 213° |
| 2026-04-15 13:10 | 46.38988 | 15.66888 | 10211 ft | 197 kts | 207° |
| 2026-04-15 13:11 | 46.37755 | 15.66050 | 10207 ft | 194 kts | 205° |
| 2026-04-15 13:11 | 46.36557 | 15.65179 | 10206 ft | 191 kts | 208° |
| 2026-04-15 13:11 | 46.35392 | 15.64257 | 10200 ft | 190 kts | 208° |
| 2026-04-15 13:11 | 46.34232 | 15.63367 | 10197 ft | 188 kts | 207° |
| 2026-04-15 13:12 | 46.33070 | 15.62516 | 10200 ft | 187 kts | 206° |
| 2026-04-15 13:12 | 46.31909 | 15.61654 | 10206 ft | 189 kts | 207° |
| 2026-04-15 13:12 | 46.30734 | 15.60762 | 10197 ft | 193 kts | 207° |
| 2026-04-15 13:12 | 46.29529 | 15.59858 | 10199 ft | 197 kts | 207° |
| 2026-04-15 13:13 | 46.28307 | 15.58938 | 10203 ft | 199 kts | 207° |
| 2026-04-15 13:13 | 46.27083 | 15.58010 | 10192 ft | 197 kts | 207° |
| 2026-04-15 13:13 | 46.25887 | 15.57109 | 10181 ft | 194 kts | 207° |
| 2026-04-15 13:13 | 46.24697 | 15.56222 | 10182 ft | 191 kts | 206° |
| 2026-04-15 13:14 | 46.23522 | 15.55348 | 10183 ft | 189 kts | 207° |
| 2026-04-15 13:14 | 46.22350 | 15.54468 | 10183 ft | 190 kts | 207° |
| 2026-04-15 13:14 | 46.21181 | 15.53587 | 10179 ft | 188 kts | 207° |
| 2026-04-15 13:14 | 46.20018 | 15.52712 | 10182 ft | 189 kts | 206° |
| 2026-04-15 13:15 | 46.18832 | 15.51835 | 10180 ft | 193 kts | 206° |
| 2026-04-15 13:15 | 46.17633 | 15.50943 | 10170 ft | 194 kts | 206° |
| 2026-04-15 13:15 | 46.16432 | 15.50039 | 10172 ft | 195 kts | 206° |
| 2026-04-15 13:15 | 46.15235 | 15.49141 | 10171 ft | 192 kts | 206° |
| 2026-04-15 13:16 | 46.14050 | 15.48258 | 10173 ft | 192 kts | 206° |
| 2026-04-15 13:16 | 46.12879 | 15.47389 | 10185 ft | 191 kts | 206° |
| 2026-04-15 13:16 | 46.11681 | 15.46493 | 10190 ft | 197 kts | 206° |
| 2026-04-15 13:16 | 46.10452 | 15.45570 | 10196 ft | 202 kts | 207° |
| 2026-04-15 13:17 | 46.09193 | 15.44631 | 10175 ft | 204 kts | 206° |
| 2026-04-15 13:17 | 46.07941 | 15.43704 | 10174 ft | 200 kts | 206° |
| 2026-04-15 13:17 | 46.06709 | 15.42790 | 10184 ft | 201 kts | 206° |
| 2026-04-15 13:17 | 46.05446 | 15.41852 | 10199 ft | 208 kts | 206° |
| 2026-04-15 13:18 | 46.04141 | 15.40892 | 10195 ft | 213 kts | 206° |
| 2026-04-15 13:18 | 46.02820 | 15.39897 | 10173 ft | 213 kts | 206° |
| 2026-04-15 13:18 | 46.01523 | 15.38918 | 10163 ft | 208 kts | 206° |
| 2026-04-15 13:18 | 46.00256 | 15.37983 | 10159 ft | 202 kts | 205° |
| 2026-04-15 13:19 | 45.99022 | 15.37084 | 10163 ft | 197 kts | 205° |
| 2026-04-15 13:19 | 45.97820 | 15.36192 | 10169 ft | 192 kts | 206° |
| 2026-04-15 13:19 | 45.96641 | 15.35313 | 10172 ft | 189 kts | 206° |
| 2026-04-15 13:19 | 45.95477 | 15.34447 | 10175 ft | 188 kts | 206° |
| 2026-04-15 13:20 | 45.94336 | 15.33604 | 10178 ft | 187 kts | 205° |
| 2026-04-15 13:20 | 45.93177 | 15.32749 | 10185 ft | 189 kts | 205° |
| 2026-04-15 13:20 | 45.91993 | 15.31875 | 10187 ft | 193 kts | 206° |
| 2026-04-15 13:20 | 45.90787 | 15.30984 | 10186 ft | 196 kts | 206° |
| 2026-04-15 13:21 | 45.89578 | 15.30085 | 10188 ft | 195 kts | 206° |
| 2026-04-15 13:21 | 45.88377 | 15.29195 | 10188 ft | 193 kts | 206° |
| 2026-04-15 13:21 | 45.87189 | 15.28320 | 10186 ft | 191 kts | 205° |
| 2026-04-15 13:21 | 45.86011 | 15.27456 | 10187 ft | 189 kts | 206° |
| 2026-04-15 13:22 | 45.84843 | 15.26592 | 10185 ft | 188 kts | 206° |
| 2026-04-15 13:22 | 45.83681 | 15.25731 | 10190 ft | 188 kts | 206° |
| 2026-04-15 13:22 | 45.82511 | 15.24873 | 10191 ft | 191 kts | 205° |
| 2026-04-15 13:22 | 45.81318 | 15.24001 | 10201 ft | 194 kts | 206° |
| 2026-04-15 13:23 | 45.80114 | 15.23110 | 10190 ft | 195 kts | 206° |
| 2026-04-15 13:23 | 45.78916 | 15.22220 | 10190 ft | 192 kts | 206° |
| 2026-04-15 13:23 | 45.77733 | 15.21350 | 10200 ft | 191 kts | 205° |
| 2026-04-15 13:23 | 45.76536 | 15.20481 | 10194 ft | 193 kts | 205° |
| 2026-04-15 13:24 | 45.75360 | 15.19616 | 10194 ft | 191 kts | 206° |
| 2026-04-15 13:24 | 45.74186 | 15.18745 | 10195 ft | 189 kts | 205° |
| 2026-04-15 13:24 | 45.73016 | 15.17886 | 10208 ft | 190 kts | 205° |
| 2026-04-15 13:24 | 45.71818 | 15.17014 | 10206 ft | 197 kts | 205° |
| 2026-04-15 13:25 | 45.70580 | 15.16110 | 10209 ft | 202 kts | 206° |
| 2026-04-15 13:25 | 45.69315 | 15.15180 | 10206 ft | 207 kts | 206° |
| 2026-04-15 13:25 | 45.68018 | 15.14232 | 10209 ft | 211 kts | 206° |
| 2026-04-15 13:25 | 45.66706 | 15.13266 | 10189 ft | 211 kts | 206° |
| 2026-04-15 13:26 | 45.65421 | 15.12317 | 10191 ft | 205 kts | 206° |
| 2026-04-15 13:26 | 45.64162 | 15.11401 | 10188 ft | 201 kts | 206° |
| 2026-04-15 13:26 | 45.62925 | 15.10500 | 10196 ft | 198 kts | 206° |
| 2026-04-15 13:26 | 45.61703 | 15.09605 | 10199 ft | 197 kts | 206° |
| 2026-04-15 13:27 | 45.60491 | 15.08716 | 10198 ft | 195 kts | 206° |
| 2026-04-15 13:27 | 45.59300 | 15.07851 | 10196 ft | 194 kts | 206° |
| 2026-04-15 13:27 | 45.58096 | 15.06975 | 10199 ft | 193 kts | 206° |
| 2026-04-15 13:27 | 45.56893 | 15.06098 | 10199 ft | 195 kts | 206° |
| 2026-04-15 13:28 | 45.55671 | 15.05208 | 10198 ft | 199 kts | 206° |
| 2026-04-15 13:28 | 45.54438 | 15.04305 | 10199 ft | 199 kts | 206° |
| 2026-04-15 13:28 | 45.53196 | 15.03401 | 10199 ft | 201 kts | 206° |
| 2026-04-15 13:28 | 45.51933 | 15.02490 | 10220 ft | 206 kts | 206° |
| 2026-04-15 13:29 | 45.50621 | 15.01604 | 10193 ft | 210 kts | 198° |
| 2026-04-15 13:29 | 45.49196 | 15.01442 | 10187 ft | 204 kts | 177° |
| 2026-04-15 13:29 | 45.47801 | 15.01638 | 10187 ft | 199 kts | 172° |
| 2026-04-15 13:29 | 45.46444 | 15.01934 | 10186 ft | 196 kts | 171° |
| 2026-04-15 13:30 | 45.45120 | 15.02332 | 10193 ft | 193 kts | 165° |
| 2026-04-15 13:30 | 45.43843 | 15.02908 | 10192 ft | 192 kts | 162° |
| 2026-04-15 13:30 | 45.42560 | 15.03435 | 10208 ft | 193 kts | 166° |
| 2026-04-15 13:30 | 45.41254 | 15.03891 | 10195 ft | 198 kts | 166° |
| 2026-04-15 13:31 | 45.39910 | 15.04394 | 10198 ft | 201 kts | 164° |
| 2026-04-15 13:31 | 45.38558 | 15.04943 | 10194 ft | 202 kts | 164° |
| 2026-04-15 13:31 | 45.37205 | 15.05466 | 10191 ft | 200 kts | 165° |
| 2026-04-15 13:31 | 45.35870 | 15.05960 | 10192 ft | 197 kts | 165° |
| 2026-04-15 13:32 | 45.34553 | 15.06459 | 10191 ft | 194 kts | 165° |
| 2026-04-15 13:32 | 45.33259 | 15.06967 | 10190 ft | 192 kts | 164° |
| 2026-04-15 13:32 | 45.31980 | 15.07463 | 10189 ft | 190 kts | 165° |
| 2026-04-15 13:32 | 45.30708 | 15.07945 | 10190 ft | 188 kts | 165° |
| 2026-04-15 13:33 | 45.29448 | 15.08423 | 10192 ft | 187 kts | 165° |
| 2026-04-15 13:33 | 45.28177 | 15.08913 | 10204 ft | 191 kts | 165° |
| 2026-04-15 13:33 | 45.26875 | 15.09417 | 10194 ft | 195 kts | 165° |
| 2026-04-15 13:33 | 45.25548 | 15.09923 | 10198 ft | 199 kts | 165° |
| 2026-04-15 13:34 | 45.24204 | 15.10430 | 10202 ft | 202 kts | 165° |
| 2026-04-15 13:34 | 45.22839 | 15.10950 | 10193 ft | 204 kts | 165° |
| 2026-04-15 13:34 | 45.21468 | 15.11477 | 10185 ft | 204 kts | 165° |
| 2026-04-15 13:34 | 45.20114 | 15.11993 | 10191 ft | 200 kts | 165° |
| 2026-04-15 13:35 | 45.18772 | 15.12504 | 10184 ft | 198 kts | 165° |
| 2026-04-15 13:35 | 45.17432 | 15.12898 | 10171 ft | 196 kts | 178° |
| 2026-04-15 13:35 | 45.16210 | 15.12132 | 10162 ft | 198 kts | 224° |
| 2026-04-15 13:35 | 45.15450 | 15.10539 | 10186 ft | 198 kts | 238° |
| 2026-04-15 13:36 | 45.14849 | 15.08752 | 10192 ft | 204 kts | 244° |